New Nada — 3ELP9 — position and weather

sailwx.info

Track history (hours):
 
Tides and Currents Weather Stations Pressure Air Temp Water Temp Dewpoint Dewpoint Depression Visibility Wind Speed Wind Dir Waves Ship Positions

New Nada

Last reported at 2014-Dec-11 03:31 UTC. Time now 2014-Dec-18 02:32 UTC.
Position N 49°16' W 127°10'.

Length 180 m; beam 32.2 m.

Type: Cargo ship. MMSI: 356005000.

Date/timePositionNaut miles runAvg speedWind from/ knotsBaromVisibWave heightAir tempDewpointWater temp
2014-Dec-11 03:31N 49°16' W 127°10'1010.7
2014-Dec-11 02:33N 49°11' W 126°56'1010.2
2014-Dec-11 01:33N 49°06' W 126°42'1110.9
2014-Dec-11 00:34N 49°01' W 126°28'1110.8
2014-Dec-10 23:33N 48°56' W 126°13'10 9.6
2014-Dec-10 22:33N 48°52' W 126°00'9 8.6
2014-Dec-10 21:33N 48°48' W 125°49'9 8.9
2014-Dec-10 20:34N 48°44' W 125°36'9 8.9
2014-Dec-10 19:33N 48°39' W 125°25'9 8.6
2014-Dec-10 18:33N 48°36' W 125°13'9 8.8
2014-Dec-10 17:33N 48°31' W 125°02'7 7.5
2014-Dec-10 16:33N 48°31' W 124°50'1110.5
2014-Dec-10 15:33N 48°29' W 124°35'1312.9
2014-Dec-10 14:33N 48°23' W 124°17'1312.5
2014-Dec-10 13:33N 48°18' W 124°00'9 9.5
2014-Dec-10 12:34N 48°16' W 123°46'3 3.0
2014-Dec-10 11:33N 48°14' W 123°44'1010.1
2014-Dec-10 10:32N 48°15' W 123°59'9 9.4
2014-Dec-10 09:34N 48°19' W 124°12'10 9.8
2014-Dec-10 08:33N 48°23' W 124°25'1211.9
2014-Dec-10 07:33N 48°28' W 124°41'1111.3
2014-Dec-10 06:33N 48°29' W 124°58'5 4.8
2014-Dec-10 05:33N 48°32' W 125°04'1211.8
2014-Dec-10 04:34N 48°32' W 124°47'1615.8
2014-Dec-10 03:33N 48°25' W 124°25'1817.6
2014-Dec-10 02:33N 48°18' W 124°01'3 3.0
2014-Dec-10 01:33N 48°15' W 124°01'10 9.7
2014-Dec-10 00:33N 48°20' W 124°14'8 8.1
2014-Dec-09 23:33N 48°25' W 124°24'1010.4
2014-Dec-09 22:33N 48°21' W 124°09'1010.0
2014-Dec-09 21:33N 48°17' W 123°55'10 9.7
2014-Dec-09 20:32N 48°15' W 123°41'8 8.2
2014-Dec-09 19:33N 48°14' W 123°53'9 8.7
2014-Dec-09 18:33N 48°17' W 124°05'10 9.5
2014-Dec-09 17:33N 48°21' W 124°18'3 2.8
2014-Dec-09 16:33N 48°23' W 124°19'8 8.2
2014-Dec-09 15:33N 48°20' W 124°07'9 8.6
2014-Dec-09 14:33N 48°17' W 123°55'8 8.4
2014-Dec-09 13:33N 48°16' W 123°43'3 3.3
2014-Dec-09 12:33N 48°14' W 123°47'1010.2
2014-Dec-09 11:32N 48°16' W 124°02'1010.2
2014-Dec-09 10:33N 48°20' W 124°15'8 3.1
2014-Dec-09 08:04N 48°19' W 124°04'4 7.3
2014-Dec-09 07:29N 48°18' W 123°58'8 8.1
2014-Dec-09 06:33N 48°16' W 123°47'1010.1
2014-Dec-09 05:33N 48°15' W 123°32'10 9.7
2014-Dec-09 04:33N 48°23' W 123°23'1110.8
2014-Dec-09 03:33N 48°32' W 123°13'1413.6
2014-Dec-09 02:33N 48°45' W 123°07'1211.5
2014-Dec-09 01:33N 48°56' W 123°11'1111.3
2014-Dec-09 00:33N 49°06' W 123°18'1110.7
2014-Dec-08 23:33N 49°09' W 123°02'5 4.8
2014-Dec-08 22:34N 49°11' W 122°55'0 0.0
2014-Dec-08 21:34N 49°11' W 122°55'0 0.0
2014-Dec-08 20:31N 49°11' W 122°55'0 0.0
2014-Dec-08 19:34N 49°11' W 122°55'0 0.0
2014-Dec-08 18:27N 49°11' W 122°55'0 0.0
2014-Dec-08 17:34N 49°11' W 122°55'0 0.0
2014-Dec-08 16:34N 49°11' W 122°55'0 0.0
2014-Dec-08 15:31N 49°11' W 122°55'0 0.0
2014-Dec-08 14:33N 49°11' W 122°55'0 0.0
2014-Dec-08 13:34N 49°11' W 122°55'0 0.0
2014-Dec-08 12:25N 49°11' W 122°55'0 0.0
2014-Dec-08 11:33N 49°11' W 122°55'4 4.1
2014-Dec-08 10:33N 49°09' W 123°01'10 9.6
2014-Dec-08 09:34N 49°07' W 123°15'6 6.1
2014-Dec-08 08:34N 49°01' W 123°16'1616.5
2014-Dec-08 07:34N 48°48' W 123°00'1313.4
2014-Dec-08 06:34N 48°38' W 123°14'1413.7
2014-Dec-08 05:33N 48°25' W 123°12'1111.3
2014-Dec-08 04:34N 48°18' W 123°25'9 9.2
2014-Dec-08 03:33N 48°14' W 123°38'1110.7
2014-Dec-08 02:33N 48°14' W 123°53'1515.0
2014-Dec-08 01:34N 48°20' W 124°14'1615.9
2014-Dec-08 00:34N 48°26' W 124°36'1515.2
2014-Dec-07 23:33N 48°28' W 124°58'1616.3
2014-Dec-07 22:34N 48°15' W 125°11'2016.7
2014-Dec-07 21:22N 47°57' W 125°25'3518.3
2014-Dec-07 19:27N 47°23' W 125°09'1719.1
2014-Dec-07 18:34N 47°08' W 124°59'1919.3
2014-Dec-07 17:33N 46°50' W 124°48'1918.9
2014-Dec-07 16:33N 46°33' W 124°36'1918.8
2014-Dec-07 15:34N 46°18' W 124°20'1010.3
2014-Dec-07 14:34N 46°15' W 124°06'1313.0
2014-Dec-07 13:33N 46°13' W 123°47'1413.8
2014-Dec-07 12:34N 46°16' W 123°28'1111.0
2014-Dec-07 11:33N 46°09' W 123°16'1111.3
2014-Dec-07 10:33N 46°08' W 122°60'1010.2
2014-Dec-07 09:33N 45°60' W 122°51'1212.4
2014-Dec-07 08:34N 45°48' W 122°47'1110.7
2014-Dec-07 07:34N 45°37' W 122°47'1 1.1
2014-Dec-07 06:32N 45°36' W 122°47'0 0.0
2014-Dec-07 05:29N 45°36' W 122°47'0 0.0
2014-Dec-07 04:29N 45°36' W 122°47'0 0.0
2014-Dec-07 03:32N 45°36' W 122°47'0 0.0
2014-Dec-07 02:26N 45°36' W 122°47'0 0.0
2014-Dec-07 01:29N 45°36' W 122°47'0 0.0
2014-Dec-07 00:29N 45°36' W 122°47'0 0.0
2014-Dec-06 23:23N 45°36' W 122°47'0 0.0
2014-Dec-06 22:29N 45°36' W 122°47'0 0.0
2014-Dec-06 21:29N 45°36' W 122°47'0 0.0
2014-Dec-06 20:26N 45°36' W 122°47'0 0.0
2014-Dec-06 19:32N 45°36' W 122°47'0 0.0
2014-Dec-06 18:26N 45°36' W 122°47'0 0.0
2014-Dec-06 17:32N 45°36' W 122°47'0 0.0
2014-Dec-06 16:32N 45°36' W 122°47'0 0.0
2014-Dec-06 15:29N 45°36' W 122°47'0 0.0
2014-Dec-06 14:23N 45°36' W 122°47'1 0.6
2014-Dec-06 13:33N 45°36' W 122°47'6 6.4
2014-Dec-06 12:33N 45°43' W 122°46'1111.3
2014-Dec-06 11:33N 45°54' W 122°48'9 9.3
2014-Dec-06 10:33N 46°03' W 122°53'8 7.8
2014-Dec-06 09:33N 46°08' W 123°01'1110.7
2014-Dec-06 08:33N 46°09' W 123°16'8 8.2
2014-Dec-06 07:34N 46°14' W 123°26'8 8.1
2014-Dec-06 06:34N 46°15' W 123°37'9 9.2
2014-Dec-06 05:33N 46°12' W 123°49'1110.9
2014-Dec-06 04:34N 46°15' W 124°04'9 8.7
2014-Dec-06 03:33N 46°10' W 124°14'6 6.0
2014-Dec-06 02:34N 46°06' W 124°21'6 6.3
2014-Dec-06 01:34N 46°03' W 124°29'9 8.9
2014-Dec-06 00:33N 46°03' W 124°42'1414.3
2014-Dec-05 23:33N 46°04' W 125°02'1414.0
2014-Dec-05 22:34N 46°08' W 125°21'1313.0
2014-Dec-05 21:33N 46°12' W 125°39'3 2.9
2014-Dec-05 20:31N 46°11' W 125°44'  
Track history (hours):
 
Tides and Currents Weather Stations Pressure Air Temp Water Temp Dewpoint Dewpoint Depression Visibility Wind Speed Wind Dir Waves Ship Positions

New Nada

Last reported at 2014-Dec-11 03:31 UTC. Time now 2014-Dec-18 02:32 UTC.
Position N 49°16' W 127°10'.

Length 180 m; beam 32.2 m.

Type: Cargo ship. MMSI: 356005000.

Date/timePositionNaut miles runAvg speedWind from/ knotsBaromVisibWave heightAir tempDewpointWater temp
2014-Dec-11 03:31N 49°16' W 127°10'1010.7
2014-Dec-11 02:33N 49°11' W 126°56'1010.2
2014-Dec-11 01:33N 49°06' W 126°42'1110.9
2014-Dec-11 00:34N 49°01' W 126°28'1110.8
2014-Dec-10 23:33N 48°56' W 126°13'10 9.6
2014-Dec-10 22:33N 48°52' W 126°00'9 8.6
2014-Dec-10 21:33N 48°48' W 125°49'9 8.9
2014-Dec-10 20:34N 48°44' W 125°36'9 8.9
2014-Dec-10 19:33N 48°39' W 125°25'9 8.6
2014-Dec-10 18:33N 48°36' W 125°13'9 8.8
2014-Dec-10 17:33N 48°31' W 125°02'7 7.5
2014-Dec-10 16:33N 48°31' W 124°50'1110.5
2014-Dec-10 15:33N 48°29' W 124°35'1312.9
2014-Dec-10 14:33N 48°23' W 124°17'1312.5
2014-Dec-10 13:33N 48°18' W 124°00'9 9.5
2014-Dec-10 12:34N 48°16' W 123°46'3 3.0
2014-Dec-10 11:33N 48°14' W 123°44'1010.1
2014-Dec-10 10:32N 48°15' W 123°59'9 9.4
2014-Dec-10 09:34N 48°19' W 124°12'10 9.8
2014-Dec-10 08:33N 48°23' W 124°25'1211.9
2014-Dec-10 07:33N 48°28' W 124°41'1111.3
2014-Dec-10 06:33N 48°29' W 124°58'5 4.8
2014-Dec-10 05:33N 48°32' W 125°04'1211.8
2014-Dec-10 04:34N 48°32' W 124°47'1615.8
2014-Dec-10 03:33N 48°25' W 124°25'1817.6
2014-Dec-10 02:33N 48°18' W 124°01'3 3.0
2014-Dec-10 01:33N 48°15' W 124°01'10 9.7
2014-Dec-10 00:33N 48°20' W 124°14'8 8.1
2014-Dec-09 23:33N 48°25' W 124°24'1010.4
2014-Dec-09 22:33N 48°21' W 124°09'1010.0
2014-Dec-09 21:33N 48°17' W 123°55'10 9.7
2014-Dec-09 20:32N 48°15' W 123°41'8 8.2
2014-Dec-09 19:33N 48°14' W 123°53'9 8.7
2014-Dec-09 18:33N 48°17' W 124°05'10 9.5
2014-Dec-09 17:33N 48°21' W 124°18'3 2.8
2014-Dec-09 16:33N 48°23' W 124°19'8 8.2
2014-Dec-09 15:33N 48°20' W 124°07'9 8.6
2014-Dec-09 14:33N 48°17' W 123°55'8 8.4
2014-Dec-09 13:33N 48°16' W 123°43'3 3.3
2014-Dec-09 12:33N 48°14' W 123°47'1010.2
2014-Dec-09 11:32N 48°16' W 124°02'1010.2
2014-Dec-09 10:33N 48°20' W 124°15'8 3.1
2014-Dec-09 08:04N 48°19' W 124°04'4 7.3
2014-Dec-09 07:29N 48°18' W 123°58'8 8.1
2014-Dec-09 06:33N 48°16' W 123°47'1010.1
2014-Dec-09 05:33N 48°15' W 123°32'10 9.7
2014-Dec-09 04:33N 48°23' W 123°23'1110.8
2014-Dec-09 03:33N 48°32' W 123°13'1413.6
2014-Dec-09 02:33N 48°45' W 123°07'1211.5
2014-Dec-09 01:33N 48°56' W 123°11'1111.3
2014-Dec-09 00:33N 49°06' W 123°18'1110.7
2014-Dec-08 23:33N 49°09' W 123°02'5 4.8
2014-Dec-08 22:34N 49°11' W 122°55'0 0.0
2014-Dec-08 21:34N 49°11' W 122°55'0 0.0
2014-Dec-08 20:31N 49°11' W 122°55'0 0.0
2014-Dec-08 19:34N 49°11' W 122°55'0 0.0
2014-Dec-08 18:27N 49°11' W 122°55'0 0.0
2014-Dec-08 17:34N 49°11' W 122°55'0 0.0
2014-Dec-08 16:34N 49°11' W 122°55'0 0.0
2014-Dec-08 15:31N 49°11' W 122°55'0 0.0
2014-Dec-08 14:33N 49°11' W 122°55'0 0.0
2014-Dec-08 13:34N 49°11' W 122°55'0 0.0
2014-Dec-08 12:25N 49°11' W 122°55'0 0.0
2014-Dec-08 11:33N 49°11' W 122°55'4 4.1
2014-Dec-08 10:33N 49°09' W 123°01'10 9.6
2014-Dec-08 09:34N 49°07' W 123°15'6 6.1
2014-Dec-08 08:34N 49°01' W 123°16'1616.5
2014-Dec-08 07:34N 48°48' W 123°00'1313.4
2014-Dec-08 06:34N 48°38' W 123°14'1413.7
2014-Dec-08 05:33N 48°25' W 123°12'1111.3
2014-Dec-08 04:34N 48°18' W 123°25'9 9.2
2014-Dec-08 03:33N 48°14' W 123°38'1110.7
2014-Dec-08 02:33N 48°14' W 123°53'1515.0
2014-Dec-08 01:34N 48°20' W 124°14'1615.9
2014-Dec-08 00:34N 48°26' W 124°36'1515.2
2014-Dec-07 23:33N 48°28' W 124°58'1616.3
2014-Dec-07 22:34N 48°15' W 125°11'2016.7
2014-Dec-07 21:22N 47°57' W 125°25'3518.3
2014-Dec-07 19:27N 47°23' W 125°09'1719.1
2014-Dec-07 18:34N 47°08' W 124°59'1919.3
2014-Dec-07 17:33N 46°50' W 124°48'1918.9
2014-Dec-07 16:33N 46°33' W 124°36'1918.8
2014-Dec-07 15:34N 46°18' W 124°20'1010.3
2014-Dec-07 14:34N 46°15' W 124°06'1313.0
2014-Dec-07 13:33N 46°13' W 123°47'1413.8
2014-Dec-07 12:34N 46°16' W 123°28'1111.0
2014-Dec-07 11:33N 46°09' W 123°16'1111.3
2014-Dec-07 10:33N 46°08' W 122°60'1010.2
2014-Dec-07 09:33N 45°60' W 122°51'1212.4
2014-Dec-07 08:34N 45°48' W 122°47'1110.7
2014-Dec-07 07:34N 45°37' W 122°47'1 1.1
2014-Dec-07 06:32N 45°36' W 122°47'0 0.0
2014-Dec-07 05:29N 45°36' W 122°47'0 0.0
2014-Dec-07 04:29N 45°36' W 122°47'0 0.0
2014-Dec-07 03:32N 45°36' W 122°47'0 0.0
2014-Dec-07 02:26N 45°36' W 122°47'0 0.0
2014-Dec-07 01:29N 45°36' W 122°47'0 0.0
2014-Dec-07 00:29N 45°36' W 122°47'0 0.0
2014-Dec-06 23:23N 45°36' W 122°47'0 0.0
2014-Dec-06 22:29N 45°36' W 122°47'0 0.0
2014-Dec-06 21:29N 45°36' W 122°47'0 0.0
2014-Dec-06 20:26N 45°36' W 122°47'0 0.0
2014-Dec-06 19:32N 45°36' W 122°47'0 0.0
2014-Dec-06 18:26N 45°36' W 122°47'0 0.0
2014-Dec-06 17:32N 45°36' W 122°47'0 0.0
2014-Dec-06 16:32N 45°36' W 122°47'0 0.0
2014-Dec-06 15:29N 45°36' W 122°47'0 0.0
2014-Dec-06 14:23N 45°36' W 122°47'1 0.6
2014-Dec-06 13:33N 45°36' W 122°47'6 6.4
2014-Dec-06 12:33N 45°43' W 122°46'1111.3
2014-Dec-06 11:33N 45°54' W 122°48'9 9.3
2014-Dec-06 10:33N 46°03' W 122°53'8 7.8
2014-Dec-06 09:33N 46°08' W 123°01'1110.7
2014-Dec-06 08:33N 46°09' W 123°16'8 8.2
2014-Dec-06 07:34N 46°14' W 123°26'8 8.1
2014-Dec-06 06:34N 46°15' W 123°37'9 9.2
2014-Dec-06 05:33N 46°12' W 123°49'1110.9
2014-Dec-06 04:34N 46°15' W 124°04'9 8.7
2014-Dec-06 03:33N 46°10' W 124°14'6 6.0
2014-Dec-06 02:34N 46°06' W 124°21'6 6.3
2014-Dec-06 01:34N 46°03' W 124°29'9 8.9
2014-Dec-06 00:33N 46°03' W 124°42'1414.3
2014-Dec-05 23:33N 46°04' W 125°02'1414.0
2014-Dec-05 22:34N 46°08' W 125°21'1313.0
2014-Dec-05 21:33N 46°12' W 125°39'3 2.9
2014-Dec-05 20:31N 46°11' W 125°44'  

Dump ship's entire track history